Time;durP1;ratioP1;P1;durP2;ratioP2;P2;SDS_P1;SDS_P2;PMS_P1;PMS_P2;Temp;Humidity;BMP_temperature;BMP_pressure;BME280_temperature;BME280_humidity;BME280_pressure;Samples;Min_cycle;Max_cycle;Signal;HPM_P1;HPM_P2
2021/04/11 00:00:40;;;;;;;;;;;21.00;34.10;;;;;;500462;237;1058;-46
2021/04/11 00:02:41;;;;;;;;;;;21.00;34.20;;;;;;500351;237;1010;-46
2021/04/11 00:04:42;;;;;;;;;;;21.00;34.20;;;;;;500432;237;1043;-46
2021/04/11 00:06:44;;;;;;;;;;;21.00;34.20;;;;;;500564;237;1127;-46
2021/04/11 00:08:45;;;;;;;;;;;21.00;34.20;;;;;;500325;237;1213;-46
2021/04/11 00:10:46;;;;;;;;;;;21.00;34.20;;;;;;500579;237;1117;-46
2021/04/11 00:12:47;;;;;;;;;;;21.10;34.30;;;;;;500587;237;1020;-46
2021/04/11 00:14:49;;;;;;;;;;;21.00;34.20;;;;;;500383;237;2211;-46
2021/04/11 00:16:50;;;;;;;;;;;21.00;34.20;;;;;;500235;237;1113;-46
2021/04/11 00:18:51;;;;;;;;;;;21.00;34.20;;;;;;500632;237;1079;-46
2021/04/11 00:20:53;;;;;;;;;;;21.10;34.30;;;;;;500349;237;1484;-45
2021/04/11 00:22:54;;;;;;;;;;;21.10;34.20;;;;;;500540;237;1035;-46
2021/04/11 00:24:55;;;;;;;;;;;21.10;34.20;;;;;;500605;237;1049;-46
2021/04/11 00:26:56;;;;;;;;;;;21.10;34.30;;;;;;500299;237;1204;-45
2021/04/11 00:28:58;;;;;;;;;;;21.20;34.10;;;;;;500410;237;1045;-46
2021/04/11 00:30:59;;;;;;;;;;;21.10;34.20;;;;;;500562;237;1078;-46
2021/04/11 00:33:00;;;;;;;;;;;20.60;34.80;;;;;;500395;237;1155;-46
2021/04/11 00:35:02;;;;;;;;;;;20.20;35.80;;;;;;500314;237;2196;-46
2021/04/11 00:37:03;;;;;;;;;;;19.90;36.30;;;;;;500461;237;1069;-46
2021/04/11 00:39:04;;;;;;;;;;;19.60;36.90;;;;;;500582;237;1157;-45
2021/04/11 00:41:05;;;;;;;;;;;19.40;37.30;;;;;;500271;237;1206;-46
2021/04/11 00:43:07;;;;;;;;;;;19.30;37.50;;;;;;500284;237;1290;-45
2021/04/11 00:45:08;;;;;;;;;;;19.10;37.70;;;;;;500351;237;1216;-46
2021/04/11 00:47:09;;;;;;;;;;;19.10;38.00;;;;;;500490;237;1217;-45
2021/04/11 00:49:11;;;;;;;;;;;19.00;38.10;;;;;;500384;237;1219;-45
2021/04/11 00:51:12;;;;;;;;;;;19.00;38.10;;;;;;500307;237;1189;-45
2021/04/11 00:53:13;;;;;;;;;;;18.90;38.20;;;;;;500417;237;1031;-45
2021/04/11 00:55:14;;;;;;;;;;;18.90;38.30;;;;;;500361;237;2188;-45
2021/04/11 00:57:16;;;;;;;;;;;18.80;38.40;;;;;;500610;237;1073;-46
2021/04/11 00:59:18;;;;;;;;;;;18.80;38.50;;;;;;500832;237;1112;-45
2021/04/11 01:01:19;;;;;;;;;;;18.80;38.50;;;;;;500515;237;1177;-46
2021/04/11 01:03:20;;;;;;;;;;;18.70;38.60;;;;;;500342;237;2024;-45
2021/04/11 01:05:22;;;;;;;;;;;18.70;38.70;;;;;;500688;237;1085;-45
2021/04/11 01:07:23;;;;;;;;;;;18.70;38.70;;;;;;500727;237;1156;-45
2021/04/11 01:09:24;;;;;;;;;;;18.60;38.70;;;;;;500314;237;1152;-45
2021/04/11 01:11:25;;;;;;;;;;;18.70;38.70;;;;;;500375;237;1174;-45
2021/04/11 01:13:27;;;;;;;;;;;18.60;38.70;;;;;;500367;237;1032;-45
2021/04/11 01:15:28;;;;;;;;;;;18.60;38.80;;;;;;500715;237;2171;-45
2021/04/11 01:17:29;;;;;;;;;;;18.50;38.80;;;;;;500461;237;1136;-45
2021/04/11 01:19:31;;;;;;;;;;;18.50;38.90;;;;;;500625;237;1094;-45
2021/04/11 01:21:32;;;;;;;;;;;18.50;38.90;;;;;;500352;237;1326;-45
2021/04/11 01:23:33;;;;;;;;;;;18.50;38.90;;;;;;500439;237;1091;-45
2021/04/11 01:25:34;;;;;;;;;;;18.50;38.90;;;;;;500475;237;1177;-46
2021/04/11 01:27:36;;;;;;;;;;;18.50;39.00;;;;;;500361;237;1179;-45
2021/04/11 01:29:37;;;;;;;;;;;18.40;38.90;;;;;;500547;237;1053;-46
2021/04/11 01:31:38;;;;;;;;;;;18.50;38.80;;;;;;500442;237;1197;-45
2021/04/11 01:33:40;;;;;;;;;;;18.50;38.80;;;;;;500501;237;1028;-45
2021/04/11 01:35:41;;;;;;;;;;;18.50;38.90;;;;;;500709;237;2132;-46
2021/04/11 01:37:42;;;;;;;;;;;18.40;38.90;;;;;;500504;237;1065;-46
2021/04/11 01:39:43;;;;;;;;;;;18.40;39.00;;;;;;500377;237;1131;-45
2021/04/11 01:41:45;;;;;;;;;;;18.40;39.00;;;;;;500736;237;1061;-45
2021/04/11 01:43:46;;;;;;;;;;;18.40;39.10;;;;;;500538;237;1066;-45
2021/04/11 01:45:48;;;;;;;;;;;18.40;39.10;;;;;;500414;237;1054;-45
2021/04/11 01:47:49;;;;;;;;;;;18.30;39.10;;;;;;500540;237;1011;-45
2021/04/11 01:49:50;;;;;;;;;;;18.40;39.10;;;;;;500392;237;1094;-45
2021/04/11 01:51:52;;;;;;;;;;;18.30;39.10;;;;;;500506;237;1042;-45
2021/04/11 01:53:53;;;;;;;;;;;18.30;39.20;;;;;;500438;237;1120;-45
2021/04/11 01:55:54;;;;;;;;;;;18.20;39.10;;;;;;500512;237;2196;-45
2021/04/11 01:57:55;;;;;;;;;;;18.20;39.20;;;;;;500800;237;1031;-45
2021/04/11 01:59:57;;;;;;;;;;;18.30;39.20;;;;;;500711;237;1172;-45
2021/04/11 02:01:58;;;;;;;;;;;18.20;39.20;;;;;;500482;237;1035;-45
2021/04/11 02:03:59;;;;;;;;;;;18.20;39.20;;;;;;500369;237;1058;-45
2021/04/11 02:06:01;;;;;;;;;;;18.20;39.20;;;;;;500658;237;1009;-46
2021/04/11 02:08:02;;;;;;;;;;;18.20;39.20;;;;;;500351;237;1119;-45
2021/04/11 02:10:03;;;;;;;;;;;18.20;39.10;;;;;;500518;237;1155;-45
2021/04/11 02:12:04;;;;;;;;;;;18.20;39.20;;;;;;500856;237;1057;-45
2021/04/11 02:14:06;;;;;;;;;;;18.20;39.30;;;;;;500425;237;1059;-46
2021/04/11 02:16:07;;;;;;;;;;;18.20;39.30;;;;;;500439;237;2244;-45
2021/04/11 02:18:08;;;;;;;;;;;18.20;39.30;;;;;;500643;237;1071;-45
2021/04/11 02:20:09;;;;;;;;;;;18.20;39.30;;;;;;500672;237;1067;-45
2021/04/11 02:22:12;;;;;;;;;;;18.20;39.30;;;;;;500271;237;1074;-45
2021/04/11 02:24:12;;;;;;;;;;;18.20;39.30;;;;;;500340;237;2517;-45
2021/04/11 02:26:13;;;;;;;;;;;18.10;39.30;;;;;;500445;237;1165;-45
2021/04/11 02:28:15;;;;;;;;;;;18.10;39.30;;;;;;500676;237;1067;-45
2021/04/11 02:30:16;;;;;;;;;;;18.10;39.30;;;;;;500547;237;1022;-45
2021/04/11 02:32:18;;;;;;;;;;;18.10;39.20;;;;;;500387;237;1077;-45
2021/04/11 02:34:19;;;;;;;;;;;18.20;39.30;;;;;;500369;237;1054;-45
2021/04/11 02:36:20;;;;;;;;;;;18.10;39.20;;;;;;500594;237;2145;-45
2021/04/11 02:38:21;;;;;;;;;;;18.10;39.30;;;;;;500760;237;1135;-45
2021/04/11 02:40:23;;;;;;;;;;;18.10;39.30;;;;;;500372;237;1145;-46
2021/04/11 02:42:24;;;;;;;;;;;18.00;39.30;;;;;;500383;237;1116;-45
2021/04/11 02:44:25;;;;;;;;;;;18.10;39.40;;;;;;500618;237;1104;-45
2021/04/11 02:46:27;;;;;;;;;;;18.10;39.40;;;;;;500335;237;1185;-45
2021/04/11 02:48:28;;;;;;;;;;;18.10;39.30;;;;;;500833;237;1044;-45
2021/04/11 02:50:29;;;;;;;;;;;18.10;39.30;;;;;;500797;237;1037;-46
2021/04/11 02:52:30;;;;;;;;;;;18.10;39.30;;;;;;500458;237;1142;-45
2021/04/11 02:54:32;;;;;;;;;;;18.10;39.20;;;;;;500390;237;1038;-45
2021/04/11 02:56:33;;;;;;;;;;;18.30;38.90;;;;;;500446;237;2183;-46
2021/04/11 02:58:34;;;;;;;;;;;18.50;38.40;;;;;;500496;237;1126;-45
2021/04/11 03:00:35;;;;;;;;;;;18.60;38.20;;;;;;500577;237;1014;-45
2021/04/11 03:02:37;;;;;;;;;;;18.60;38.20;;;;;;500325;237;1110;-45
2021/04/11 03:04:38;;;;;;;;;;;18.60;38.30;;;;;;500494;237;998;-46
2021/04/11 03:06:39;;;;;;;;;;;18.60;38.30;;;;;;500341;237;1011;-45
2021/04/11 03:08:41;;;;;;;;;;;18.60;38.30;;;;;;500490;237;1132;-45
2021/04/11 03:10:42;;;;;;;;;;;18.50;38.40;;;;;;500584;237;1129;-45
2021/04/11 03:12:43;;;;;;;;;;;18.50;38.40;;;;;;500341;237;1022;-46
2021/04/11 03:14:44;;;;;;;;;;;18.40;38.50;;;;;;500355;237;1037;-45
2021/04/11 03:16:46;;;;;;;;;;;18.40;38.60;;;;;;500497;237;2179;-45
2021/04/11 03:18:47;;;;;;;;;;;18.40;38.70;;;;;;500627;237;1016;-45
2021/04/11 03:20:48;;;;;;;;;;;18.30;38.70;;;;;;500346;237;1089;-45
2021/04/11 03:22:49;;;;;;;;;;;18.40;38.60;;;;;;500866;237;1070;-46
2021/04/11 03:24:51;;;;;;;;;;;18.50;38.50;;;;;;500693;237;1055;-45
2021/04/11 03:26:52;;;;;;;;;;;18.40;38.40;;;;;;500500;237;1200;-46
2021/04/11 03:28:53;;;;;;;;;;;18.50;38.40;;;;;;500526;237;1037;-46
2021/04/11 03:30:55;;;;;;;;;;;18.50;38.40;;;;;;500861;237;1020;-46
2021/04/11 03:32:56;;;;;;;;;;;18.50;38.50;;;;;;500358;237;1042;-45
2021/04/11 03:34:57;;;;;;;;;;;18.50;38.40;;;;;;500626;237;1067;-45
2021/04/11 03:36:58;;;;;;;;;;;18.40;38.60;;;;;;500515;237;2120;-45
2021/04/11 03:39:00;;;;;;;;;;;18.40;38.60;;;;;;500824;237;1068;-45
2021/04/11 03:41:01;;;;;;;;;;;18.40;38.60;;;;;;500741;237;1244;-45
2021/04/11 03:43:02;;;;;;;;;;;18.40;38.60;;;;;;500468;237;1163;-45
2021/04/11 03:45:04;;;;;;;;;;;18.40;38.60;;;;;;500674;237;1076;-46
2021/04/11 03:47:05;;;;;;;;;;;18.40;38.60;;;;;;500295;237;1505;-45
2021/04/11 03:49:06;;;;;;;;;;;18.40;38.60;;;;;;500489;237;1077;-45
2021/04/11 03:51:07;;;;;;;;;;;18.40;38.50;;;;;;500416;237;1158;-46
2021/04/11 03:53:09;;;;;;;;;;;18.40;38.60;;;;;;500373;237;1333;-45
2021/04/11 03:55:10;;;;;;;;;;;18.30;38.60;;;;;;500409;237;1061;-46
2021/04/11 03:57:11;;;;;;;;;;;18.40;38.70;;;;;;500395;237;2164;-45
2021/04/11 03:59:13;;;;;;;;;;;18.40;38.60;;;;;;500371;237;1113;-45
2021/04/11 04:01:14;;;;;;;;;;;18.40;38.60;;;;;;500695;237;1308;-46
2021/04/11 04:03:15;;;;;;;;;;;18.40;38.50;;;;;;500425;237;1059;-45
2021/04/11 04:05:17;;;;;;;;;;;18.40;38.50;;;;;;500430;237;1109;-45
2021/04/11 04:07:18;;;;;;;;;;;18.40;38.60;;;;;;500412;237;1217;-45
2021/04/11 04:09:19;;;;;;;;;;;18.40;38.60;;;;;;500360;237;1092;-45
2021/04/11 04:11:21;;;;;;;;;;;18.40;38.70;;;;;;500362;237;1289;-46
2021/04/11 04:13:22;;;;;;;;;;;18.30;38.70;;;;;;500405;237;1049;-46
2021/04/11 04:15:23;;;;;;;;;;;18.30;38.70;;;;;;500383;237;1040;-45
2021/04/11 04:17:24;;;;;;;;;;;18.30;38.70;;;;;;500566;237;2183;-45
2021/04/11 04:19:26;;;;;;;;;;;18.30;38.70;;;;;;500482;237;1086;-45
2021/04/11 04:21:27;;;;;;;;;;;18.30;38.80;;;;;;500521;237;1113;-45
2021/04/11 04:23:28;;;;;;;;;;;18.30;38.80;;;;;;500704;237;1029;-45
2021/04/11 04:25:30;;;;;;;;;;;18.30;38.70;;;;;;500671;237;1101;-46
2021/04/11 04:27:31;;;;;;;;;;;18.30;38.70;;;;;;500364;237;1165;-45
2021/04/11 04:29:32;;;;;;;;;;;18.30;38.70;;;;;;500421;237;1055;-45
2021/04/11 04:31:33;;;;;;;;;;;18.20;38.70;;;;;;500601;237;1059;-45
2021/04/11 04:33:35;;;;;;;;;;;18.30;38.80;;;;;;500574;237;997;-45
2021/04/11 04:35:36;;;;;;;;;;;18.30;38.70;;;;;;500433;237;1093;-45
2021/04/11 04:37:37;;;;;;;;;;;18.30;38.70;;;;;;500352;237;2187;-45
2021/04/11 04:39:38;;;;;;;;;;;18.30;38.70;;;;;;500291;237;958;-45
2021/04/11 04:41:40;;;;;;;;;;;18.20;38.80;;;;;;500664;237;1173;-45
2021/04/11 04:43:41;;;;;;;;;;;18.20;38.80;;;;;;500852;237;1065;-45
2021/04/11 04:45:42;;;;;;;;;;;18.20;38.80;;;;;;500823;237;1082;-45
2021/04/11 04:47:44;;;;;;;;;;;18.20;38.80;;;;;;500624;237;1074;-45
2021/04/11 04:49:45;;;;;;;;;;;18.20;38.90;;;;;;500556;237;1109;-45
2021/04/11 04:51:46;;;;;;;;;;;18.20;38.90;;;;;;500533;237;1063;-45
2021/04/11 04:53:47;;;;;;;;;;;18.20;38.80;;;;;;500367;237;1071;-45
2021/04/11 04:55:49;;;;;;;;;;;18.20;38.70;;;;;;500513;237;1065;-45
2021/04/11 04:57:50;;;;;;;;;;;18.20;38.80;;;;;;500460;237;2192;-45
2021/04/11 04:59:51;;;;;;;;;;;18.20;38.80;;;;;;500414;237;1057;-45
2021/04/11 05:01:53;;;;;;;;;;;18.20;38.90;;;;;;500739;237;1008;-46
2021/04/11 05:03:54;;;;;;;;;;;18.20;38.80;;;;;;500555;237;1059;-45
2021/04/11 05:05:55;;;;;;;;;;;18.20;38.80;;;;;;500438;237;1038;-45
2021/04/11 05:07:56;;;;;;;;;;;18.30;38.70;;;;;;500472;237;1039;-46
2021/04/11 05:09:58;;;;;;;;;;;18.50;38.40;;;;;;500518;237;1037;-45
2021/04/11 05:11:59;;;;;;;;;;;18.80;37.80;;;;;;500428;237;1164;-46
2021/04/11 05:14:00;;;;;;;;;;;19.00;37.20;;;;;;500342;237;1201;-46
2021/04/11 05:16:01;;;;;;;;;;;19.20;36.80;;;;;;500404;237;1156;-46
2021/04/11 05:18:04;;;;;;;;;;;19.40;36.60;;;;;;500394;237;2145;-46
2021/04/11 05:20:04;;;;;;;;;;;19.40;36.40;;;;;;500402;237;2321;-46
2021/04/11 05:22:05;;;;;;;;;;;19.50;36.30;;;;;;500523;237;1028;-45
2021/04/11 05:24:07;;;;;;;;;;;19.50;36.10;;;;;;500377;237;1037;-45
2021/04/11 05:26:08;;;;;;;;;;;19.70;36.10;;;;;;500644;237;1068;-45
2021/04/11 05:28:09;;;;;;;;;;;19.70;36.00;;;;;;500483;237;1274;-46
2021/04/11 05:30:10;;;;;;;;;;;19.70;35.90;;;;;;500512;237;1014;-45
2021/04/11 05:32:12;;;;;;;;;;;19.80;35.80;;;;;;500499;237;1040;-46
2021/04/11 05:34:13;;;;;;;;;;;19.80;35.70;;;;;;500673;237;1063;-45
2021/04/11 05:36:14;;;;;;;;;;;19.90;35.70;;;;;;500646;237;1824;-46
2021/04/11 05:38:16;;;;;;;;;;;19.90;35.60;;;;;;500402;237;2196;-46
2021/04/11 05:40:17;;;;;;;;;;;19.90;35.60;;;;;;500863;237;1027;-45
2021/04/11 05:42:18;;;;;;;;;;;19.90;35.50;;;;;;500486;237;1132;-46
2021/04/11 05:44:19;;;;;;;;;;;19.90;35.50;;;;;;500292;237;1095;-46
2021/04/11 05:46:21;;;;;;;;;;;20.00;35.50;;;;;;500381;237;1396;-45
2021/04/11 05:48:22;;;;;;;;;;;20.00;35.40;;;;;;500402;237;1033;-46
2021/04/11 05:50:23;;;;;;;;;;;20.00;35.30;;;;;;500368;237;1288;-46
2021/04/11 05:52:24;;;;;;;;;;;20.00;35.30;;;;;;500620;237;1070;-45
2021/04/11 05:54:26;;;;;;;;;;;20.10;35.40;;;;;;500401;237;1071;-46
2021/04/11 05:56:27;;;;;;;;;;;20.10;35.30;;;;;;500585;237;1224;-46
2021/04/11 05:58:28;;;;;;;;;;;20.10;35.30;;;;;;500575;237;2105;-46
2021/04/11 06:00:30;;;;;;;;;;;20.20;35.40;;;;;;500485;237;1071;-46
2021/04/11 06:02:31;;;;;;;;;;;20.20;35.20;;;;;;500397;237;1045;-45
2021/04/11 06:04:33;;;;;;;;;;;20.20;35.20;;;;;;500472;237;935;-46
2021/04/11 06:06:34;;;;;;;;;;;20.20;35.20;;;;;;500570;237;1084;-46
2021/04/11 06:08:35;;;;;;;;;;;20.20;35.20;;;;;;500285;237;1049;-46
2021/04/11 06:10:36;;;;;;;;;;;20.20;35.10;;;;;;500326;237;1097;-46
2021/04/11 06:12:38;;;;;;;;;;;20.30;35.10;;;;;;500349;234;1740;-46
2021/04/11 06:14:39;;;;;;;;;;;20.30;35.20;;;;;;500522;237;1165;-46
2021/04/11 06:16:40;;;;;;;;;;;20.30;35.10;;;;;;500484;237;1205;-46
2021/04/11 06:18:42;;;;;;;;;;;20.30;35.10;;;;;;500327;237;2184;-46
2021/04/11 06:20:43;;;;;;;;;;;20.30;35.00;;;;;;500786;237;1357;-46
2021/04/11 06:22:44;;;;;;;;;;;20.40;35.00;;;;;;500455;237;1110;-45
2021/04/11 06:24:46;;;;;;;;;;;20.40;35.00;;;;;;500402;237;966;-46
2021/04/11 06:26:47;;;;;;;;;;;20.40;34.90;;;;;;500308;237;1209;-45
2021/04/11 06:28:48;;;;;;;;;;;20.40;34.90;;;;;;500456;237;1151;-46
2021/04/11 06:30:50;;;;;;;;;;;20.40;34.90;;;;;;500431;237;1202;-45
2021/04/11 06:32:51;;;;;;;;;;;20.40;34.90;;;;;;500332;237;991;-45
2021/04/11 06:34:52;;;;;;;;;;;20.40;34.90;;;;;;500873;237;1094;-46
2021/04/11 06:36:54;;;;;;;;;;;20.40;34.90;;;;;;500635;237;2183;-45
2021/04/11 06:38:55;;;;;;;;;;;20.50;34.90;;;;;;500313;237;1029;-46
2021/04/11 06:40:56;;;;;;;;;;;20.50;34.90;;;;;;500747;237;1166;-45
2021/04/11 06:42:57;;;;;;;;;;;20.40;34.80;;;;;;500378;237;1132;-45
2021/04/11 06:44:59;;;;;;;;;;;20.50;34.90;;;;;;500404;237;1068;-46
2021/04/11 06:47:00;;;;;;;;;;;20.50;34.80;;;;;;500390;237;1138;-46
2021/04/11 06:49:01;;;;;;;;;;;20.50;34.80;;;;;;500482;237;1030;-46
2021/04/11 06:51:02;;;;;;;;;;;20.50;34.80;;;;;;500452;237;1107;-46
2021/04/11 06:53:04;;;;;;;;;;;20.50;34.80;;;;;;500409;237;1026;-45
2021/04/11 06:55:05;;;;;;;;;;;20.50;34.80;;;;;;500496;237;1001;-46
2021/04/11 06:57:06;;;;;;;;;;;20.60;34.80;;;;;;500283;237;2208;-45
2021/04/11 06:59:08;;;;;;;;;;;20.60;34.80;;;;;;500397;237;1144;-46
2021/04/11 07:01:09;;;;;;;;;;;20.60;34.70;;;;;;500302;237;1155;-46
2021/04/11 07:03:10;;;;;;;;;;;20.60;34.70;;;;;;500698;237;1088;-46
2021/04/11 07:05:12;;;;;;;;;;;20.60;34.70;;;;;;500499;237;1073;-45
2021/04/11 07:07:13;;;;;;;;;;;20.60;34.70;;;;;;500774;237;1163;-45
2021/04/11 07:09:14;;;;;;;;;;;20.60;34.60;;;;;;500505;237;1057;-46
2021/04/11 07:11:16;;;;;;;;;;;20.60;34.60;;;;;;500666;237;1159;-46
2021/04/11 07:13:17;;;;;;;;;;;20.70;34.60;;;;;;500346;237;1149;-46
2021/04/11 07:15:18;;;;;;;;;;;20.70;34.60;;;;;;500477;237;1052;-46
2021/04/11 07:17:20;;;;;;;;;;;20.70;34.60;;;;;;500329;237;2195;-46
2021/04/11 07:19:21;;;;;;;;;;;20.70;34.60;;;;;;500425;237;1090;-46
2021/04/11 07:21:22;;;;;;;;;;;20.70;34.60;;;;;;500375;237;1097;-46
2021/04/11 07:23:24;;;;;;;;;;;20.70;34.60;;;;;;500544;237;1058;-46
2021/04/11 07:25:25;;;;;;;;;;;20.70;34.60;;;;;;500367;237;1065;-46
2021/04/11 07:27:26;;;;;;;;;;;20.70;34.60;;;;;;500391;237;1020;-46
2021/04/11 07:29:27;;;;;;;;;;;20.70;34.60;;;;;;500360;237;1153;-46
2021/04/11 07:31:29;;;;;;;;;;;20.70;34.50;;;;;;500699;237;1071;-46
2021/04/11 07:33:30;;;;;;;;;;;20.70;34.50;;;;;;500350;237;1033;-46
2021/04/11 07:35:31;;;;;;;;;;;20.80;34.60;;;;;;500361;237;968;-46
2021/04/11 07:37:33;;;;;;;;;;;20.80;34.60;;;;;;500486;237;2184;-46
2021/04/11 07:39:34;;;;;;;;;;;20.80;34.60;;;;;;500544;237;1111;-46
2021/04/11 07:41:35;;;;;;;;;;;20.80;34.60;;;;;;500415;237;1122;-46
2021/04/11 07:43:36;;;;;;;;;;;20.80;34.50;;;;;;500414;237;1110;-46
2021/04/11 07:45:38;;;;;;;;;;;20.80;34.50;;;;;;500529;237;1213;-46
2021/04/11 07:47:39;;;;;;;;;;;20.80;34.60;;;;;;500353;237;1358;-46
2021/04/11 07:49:40;;;;;;;;;;;20.80;34.60;;;;;;500344;237;1156;-45
2021/04/11 07:51:42;;;;;;;;;;;20.80;34.50;;;;;;500570;237;1185;-46
2021/04/11 07:53:44;;;;;;;;;;;20.90;34.60;;;;;;500355;237;1055;-45
2021/04/11 07:55:45;;;;;;;;;;;20.80;34.50;;;;;;500498;237;1050;-45
2021/04/11 07:57:46;;;;;;;;;;;20.90;34.60;;;;;;500462;237;2187;-45
2021/04/11 07:59:48;;;;;;;;;;;20.80;34.50;;;;;;500400;237;1164;-46
2021/04/11 08:01:49;;;;;;;;;;;20.90;34.60;;;;;;500490;237;1145;-46
2021/04/11 08:03:50;;;;;;;;;;;20.90;34.50;;;;;;500464;237;1068;-46
2021/04/11 08:05:52;;;;;;;;;;;20.90;34.50;;;;;;500426;237;1024;-46
2021/04/11 08:07:53;;;;;;;;;;;20.90;34.50;;;;;;500409;237;1061;-46
2021/04/11 08:09:54;;;;;;;;;;;20.90;34.50;;;;;;500420;237;1043;-46
2021/04/11 08:11:55;;;;;;;;;;;20.90;34.50;;;;;;500609;237;1141;-46
2021/04/11 08:13:57;;;;;;;;;;;20.90;34.50;;;;;;500335;237;1180;-45
2021/04/11 08:15:58;;;;;;;;;;;20.90;34.50;;;;;;500398;237;1081;-46
2021/04/11 08:17:59;;;;;;;;;;;20.90;34.50;;;;;;500411;237;2137;-45
2021/04/11 08:20:01;;;;;;;;;;;20.90;34.50;;;;;;500522;237;1118;-46
2021/04/11 08:22:02;;;;;;;;;;;20.90;34.50;;;;;;500327;237;1073;-46
2021/04/11 08:24:03;;;;;;;;;;;21.00;34.50;;;;;;500782;237;1069;-46
2021/04/11 08:26:04;;;;;;;;;;;21.00;34.50;;;;;;500391;237;1124;-46
2021/04/11 08:28:06;;;;;;;;;;;21.00;34.50;;;;;;500302;237;1073;-45
2021/04/11 08:30:07;;;;;;;;;;;20.90;34.50;;;;;;500553;237;1283;-46
2021/04/11 08:32:08;;;;;;;;;;;20.90;34.50;;;;;;500318;237;1130;-46
2021/04/11 08:34:10;;;;;;;;;;;21.00;34.50;;;;;;500382;237;1078;-46
2021/04/11 08:36:11;;;;;;;;;;;21.00;34.40;;;;;;500383;237;1108;-46
2021/04/11 08:38:12;;;;;;;;;;;21.00;34.40;;;;;;500343;237;2140;-46
2021/04/11 08:40:13;;;;;;;;;;;21.00;34.50;;;;;;500287;237;1059;-46
2021/04/11 08:42:15;;;;;;;;;;;21.00;34.50;;;;;;500773;237;1069;-46
2021/04/11 08:44:16;;;;;;;;;;;21.00;34.40;;;;;;500456;237;1263;-45
2021/04/11 08:46:18;;;;;;;;;;;21.00;34.40;;;;;;500629;237;1135;-45
2021/04/11 08:48:19;;;;;;;;;;;21.00;34.40;;;;;;500619;237;1048;-45
2021/04/11 08:50:20;;;;;;;;;;;21.00;34.40;;;;;;500332;237;1065;-46
2021/04/11 08:52:21;;;;;;;;;;;21.00;34.40;;;;;;500446;237;1231;-46
2021/04/11 08:54:23;;;;;;;;;;;21.00;34.40;;;;;;500351;237;1119;-46
2021/04/11 08:56:24;;;;;;;;;;;21.00;34.40;;;;;;500302;237;1212;-46
2021/04/11 08:58:25;;;;;;;;;;;21.10;34.50;;;;;;500486;237;2168;-46
2021/04/11 09:00:27;;;;;;;;;;;21.00;34.40;;;;;;500417;237;1195;-46
2021/04/11 09:02:28;;;;;;;;;;;21.10;34.50;;;;;;500458;237;1104;-46
2021/04/11 09:04:29;;;;;;;;;;;21.10;34.40;;;;;;500341;237;1072;-46
2021/04/11 09:06:30;;;;;;;;;;;21.10;34.40;;;;;;500360;237;1054;-45
2021/04/11 09:08:32;;;;;;;;;;;21.10;34.40;;;;;;500552;237;1062;-46
2021/04/11 09:10:33;;;;;;;;;;;21.10;34.40;;;;;;500552;237;1021;-46
2021/04/11 09:12:36;;;;;;;;;;;21.10;34.40;;;;;;500682;237;1211;-46
2021/04/11 09:14:36;;;;;;;;;;;21.10;34.40;;;;;;500233;237;2403;-46
2021/04/11 09:16:37;;;;;;;;;;;21.10;34.40;;;;;;500525;237;1077;-45
2021/04/11 09:18:38;;;;;;;;;;;21.10;34.40;;;;;;500335;237;2207;-46
2021/04/11 09:20:40;;;;;;;;;;;21.20;34.30;;;;;;500293;237;1121;-45
2021/04/11 09:22:41;;;;;;;;;;;21.20;34.30;;;;;;500338;237;1224;-46
2021/04/11 09:24:42;;;;;;;;;;;21.20;34.30;;;;;;500461;237;1111;-45
2021/04/11 09:26:43;;;;;;;;;;;21.20;34.40;;;;;;500308;237;1347;-46
2021/04/11 09:28:45;;;;;;;;;;;21.10;34.30;;;;;;500328;237;1023;-46
2021/04/11 09:30:46;;;;;;;;;;;21.20;34.40;;;;;;500557;237;1301;-46
2021/04/11 09:32:47;;;;;;;;;;;21.20;34.30;;;;;;500431;237;1031;-46
2021/04/11 09:34:48;;;;;;;;;;;21.20;34.40;;;;;;500360;237;1052;-45
2021/04/11 09:36:50;;;;;;;;;;;21.20;34.40;;;;;;500511;237;1020;-46
2021/04/11 09:38:51;;;;;;;;;;;21.10;34.40;;;;;;500372;237;2153;-46
2021/04/11 09:40:52;;;;;;;;;;;21.10;34.40;;;;;;500376;237;1247;-46
2021/04/11 09:42:54;;;;;;;;;;;21.20;34.40;;;;;;500402;237;1029;-46
2021/04/11 09:44:55;;;;;;;;;;;21.20;34.30;;;;;;500318;237;1292;-46
2021/04/11 09:46:56;;;;;;;;;;;21.20;34.30;;;;;;500445;237;1062;-45
2021/04/11 09:48:57;;;;;;;;;;;21.20;34.40;;;;;;500677;237;1125;-46
2021/04/11 09:50:59;;;;;;;;;;;21.20;34.30;;;;;;500415;237;1061;-46
2021/04/11 09:53:00;;;;;;;;;;;21.20;34.40;;;;;;500363;237;1051;-46
2021/04/11 09:55:01;;;;;;;;;;;21.20;34.40;;;;;;500455;237;1262;-46
2021/04/11 09:57:03;;;;;;;;;;;21.20;34.40;;;;;;500322;237;1053;-46
2021/04/11 09:59:04;;;;;;;;;;;21.20;34.40;;;;;;500325;237;2184;-46
2021/04/11 10:01:05;;;;;;;;;;;21.20;34.30;;;;;;500600;237;1189;-46
2021/04/11 10:03:06;;;;;;;;;;;21.20;34.30;;;;;;500503;237;1062;-46
2021/04/11 10:05:08;;;;;;;;;;;21.20;34.30;;;;;;500432;237;1005;-46
2021/04/11 10:07:09;;;;;;;;;;;21.20;34.30;;;;;;500497;237;1291;-46
2021/04/11 10:09:10;;;;;;;;;;;21.20;34.30;;;;;;500417;237;1080;-45
2021/04/11 10:11:12;;;;;;;;;;;21.20;34.30;;;;;;500374;237;1238;-46
2021/04/11 10:13:13;;;;;;;;;;;21.20;34.30;;;;;;500552;237;1041;-46
2021/04/11 10:15:14;;;;;;;;;;;21.20;34.30;;;;;;500319;234;1285;-46
2021/04/11 10:17:15;;;;;;;;;;;21.20;34.30;;;;;;500479;237;1129;-46
2021/04/11 10:19:17;;;;;;;;;;;21.30;34.30;;;;;;500514;237;2127;-46
2021/04/11 10:21:18;;;;;;;;;;;21.40;34.20;;;;;;500374;237;1186;-46
2021/04/11 10:23:19;;;;;;;;;;;21.00;34.70;;;;;;500393;237;1043;-46
2021/04/11 10:25:20;;;;;;;;;;;20.50;35.60;;;;;;500442;237;1145;-46
2021/04/11 10:27:22;;;;;;;;;;;20.10;36.30;;;;;;500346;237;1285;-45
2021/04/11 10:29:23;;;;;;;;;;;19.90;36.80;;;;;;500314;237;1519;-45
2021/04/11 10:31:24;;;;;;;;;;;19.70;37.20;;;;;;500369;234;1301;-45
2021/04/11 10:33:26;;;;;;;;;;;19.50;37.50;;;;;;500574;237;1026;-45
2021/04/11 10:35:27;;;;;;;;;;;19.40;37.70;;;;;;500352;237;1081;-45
2021/04/11 10:37:28;;;;;;;;;;;19.30;37.90;;;;;;500678;237;1187;-45
2021/04/11 10:39:30;;;;;;;;;;;19.30;38.00;;;;;;500300;237;2196;-45
2021/04/11 10:41:32;;;;;;;;;;;19.20;38.20;;;;;;500273;237;1305;-46
2021/04/11 10:43:32;;;;;;;;;;;19.10;38.20;;;;;;500662;237;1289;-45
2021/04/11 10:45:34;;;;;;;;;;;19.10;38.30;;;;;;500475;237;1102;-45
2021/04/11 10:47:35;;;;;;;;;;;19.00;38.40;;;;;;500430;237;1226;-45
2021/04/11 10:49:36;;;;;;;;;;;19.00;38.60;;;;;;500427;237;1033;-45
2021/04/11 10:51:38;;;;;;;;;;;18.90;38.60;;;;;;500527;237;1046;-45
2021/04/11 10:53:39;;;;;;;;;;;18.90;38.70;;;;;;500392;237;1061;-45
2021/04/11 10:55:40;;;;;;;;;;;18.80;38.80;;;;;;500482;237;1007;-45
2021/04/11 10:57:42;;;;;;;;;;;18.80;38.90;;;;;;500364;237;1054;-45
2021/04/11 10:59:43;;;;;;;;;;;18.80;38.80;;;;;;500304;237;2140;-45
2021/04/11 11:01:44;;;;;;;;;;;18.80;38.90;;;;;;500417;237;1603;-45
2021/04/11 11:03:45;;;;;;;;;;;18.80;38.90;;;;;;500402;237;1077;-46
2021/04/11 11:05:47;;;;;;;;;;;18.70;38.90;;;;;;500599;237;1257;-46
2021/04/11 11:07:48;;;;;;;;;;;18.70;38.90;;;;;;500717;237;1205;-46
2021/04/11 11:09:49;;;;;;;;;;;18.70;39.00;;;;;;500360;237;1071;-46
2021/04/11 11:11:51;;;;;;;;;;;18.70;39.00;;;;;;500513;237;1210;-45
2021/04/11 11:13:52;;;;;;;;;;;18.60;39.00;;;;;;500381;237;1037;-46
2021/04/11 11:15:53;;;;;;;;;;;18.60;39.10;;;;;;500347;237;1199;-45
2021/04/11 11:17:55;;;;;;;;;;;18.60;39.10;;;;;;500343;237;1162;-45
2021/04/11 11:19:56;;;;;;;;;;;18.60;39.10;;;;;;500476;237;2196;-45
2021/04/11 11:21:57;;;;;;;;;;;18.60;39.20;;;;;;500498;237;1143;-46
2021/04/11 11:23:59;;;;;;;;;;;18.60;39.20;;;;;;500362;237;1054;-45
2021/04/11 11:26:00;;;;;;;;;;;18.50;39.20;;;;;;500400;237;1098;-46
2021/04/11 11:28:01;;;;;;;;;;;18.50;39.30;;;;;;500465;237;1043;-45
2021/04/11 11:30:02;;;;;;;;;;;18.40;39.30;;;;;;500307;237;1056;-46
2021/04/11 11:32:04;;;;;;;;;;;18.40;39.30;;;;;;500460;237;1259;-45
2021/04/11 11:34:05;;;;;;;;;;;18.50;39.30;;;;;;500308;237;1044;-45
2021/04/11 11:36:06;;;;;;;;;;;18.40;39.30;;;;;;500402;237;1057;-45
2021/04/11 11:38:09;;;;;;;;;;;18.40;39.30;;;;;;500339;237;1051;-46
2021/04/11 11:40:09;;;;;;;;;;;18.40;39.40;;;;;;500307;237;2105;-46
2021/04/11 11:42:10;;;;;;;;;;;18.40;39.30;;;;;;500387;237;975;-45
2021/04/11 11:44:11;;;;;;;;;;;18.40;39.40;;;;;;500391;237;1077;-45
2021/04/11 11:46:13;;;;;;;;;;;18.40;39.30;;;;;;500254;237;1320;-45
2021/04/11 11:48:14;;;;;;;;;;;18.40;39.30;;;;;;500452;237;1104;-45
2021/04/11 11:50:15;;;;;;;;;;;18.40;39.30;;;;;;500557;237;1044;-45
2021/04/11 11:52:17;;;;;;;;;;;18.30;39.30;;;;;;500311;237;1087;-46
2021/04/11 11:54:18;;;;;;;;;;;18.40;39.40;;;;;;500595;237;1078;-45
2021/04/11 11:56:19;;;;;;;;;;;18.40;39.30;;;;;;500302;237;1315;-45